Burg Airport


Codes: EDBG/
Name: Burg Airport
City: Burg
Country: Germany
Elevation: 174 ft.

Photos at Burg Airport


   Photos courtesy of SpottingLog. You can add your own sightings and photos by signing up for a free trial today.



No photos found.

Weather at Burg Airport


Time (UTC)DescriptionTempratureWindCloud coverageVisibilityPressureHumidity
16-Jun-2024 00:00Broken Clouds12°C4 mph, S65%10000m1009hPa72%
16-Jun-2024 03:00Scattered Clouds12°C7 mph, S48%10000m1009hPa74%
16-Jun-2024 06:00Scattered Clouds14°C9 mph, S30%10000m1010hPa68%
16-Jun-2024 09:00Light Rain19°C13 mph, SW35%10000m1010hPa57%
16-Jun-2024 12:00Light Rain22°C13 mph, SW51%10000m1009hPa48%
16-Jun-2024 15:00Broken Clouds21°C13 mph, SW66%10000m1009hPa48%
16-Jun-2024 18:00Light Rain18°C9 mph, W80%10000m1010hPa69%
16-Jun-2024 21:00Overcast Clouds15°C7 mph, S100%10000m1011hPa76%
17-Jun-2024 00:00Overcast Clouds13°C7 mph, S91%10000m1012hPa87%
17-Jun-2024 03:00Broken Clouds12°C7 mph, S75%10000m1013hPa93%
17-Jun-2024 06:00Broken Clouds16°C9 mph, S80%10000m1013hPa78%
17-Jun-2024 09:00Light Rain20°C9 mph, SW93%10000m1014hPa68%
17-Jun-2024 12:00Light Rain20°C11 mph, W95%10000m1013hPa64%
17-Jun-2024 15:00Light Rain22°C7 mph, SW100%10000m1013hPa59%
17-Jun-2024 18:00Light Rain19°C4 mph, W100%10000m1014hPa80%
17-Jun-2024 21:00Overcast Clouds16°C4 mph, SW100%10000m1015hPa87%
18-Jun-2024 00:00Overcast Clouds14°C4 mph, W90%10000m1015hPa92%
18-Jun-2024 03:00Broken Clouds13°C4 mph, W79%10000m1016hPa94%
18-Jun-2024 06:00Broken Clouds17°C4 mph, W80%10000m1016hPa83%
18-Jun-2024 09:00Overcast Clouds21°C4 mph, W100%10000m1016hPa66%
18-Jun-2024 12:00Light Rain22°C7 mph, W91%10000m1016hPa63%
18-Jun-2024 15:00Light Rain23°C4 mph, W97%10000m1015hPa55%
18-Jun-2024 18:00Moderate Rain18°C4 mph, NW92%3858m1012hPa91%
18-Jun-2024 21:00Heavy Intensity Rain16°C7 mph, NW100%10000m1014hPa98%
19-Jun-2024 00:00Light Rain15°C4 mph, W100%8105m1014hPa98%
19-Jun-2024 03:00Moderate Rain14°C9 mph, NW100%10000m1016hPa95%
19-Jun-2024 06:00Broken Clouds13°C11 mph, NW65%10000m1019hPa87%
19-Jun-2024 09:00Scattered Clouds17°C13 mph, W26%10000m1020hPa65%
19-Jun-2024 12:00Broken Clouds16°C11 mph, W63%10000m1021hPa70%
19-Jun-2024 15:00Broken Clouds19°C11 mph, NW79%10000m1021hPa59%
19-Jun-2024 18:00Broken Clouds17°C7 mph, W68%10000m1022hPa70%
19-Jun-2024 21:00Overcast Clouds12°C7 mph, W94%10000m1022hPa88%
20-Jun-2024 00:00Overcast Clouds10°C4 mph, NW94%10000m1022hPa92%
20-Jun-2024 03:00Clear Sky9°C0 mph, SE10%10000m1021hPa93%
20-Jun-2024 06:00Clear Sky14°C4 mph, S7%10000m1020hPa77%
20-Jun-2024 09:00Clear Sky20°C4 mph, S6%10000m1018hPa55%
20-Jun-2024 12:00Clear Sky24°C7 mph, S8%10000m1015hPa46%
20-Jun-2024 15:00Scattered Clouds25°C7 mph, S35%10000m1013hPa46%
20-Jun-2024 18:00Scattered Clouds23°C2 mph, SE32%10000m1010hPa66%
20-Jun-2024 21:00Broken Clouds19°C7 mph, E61%10000m1008hPa72%